createdAt,value
2018-01-29T00:00:37.547Z,81.64
2018-01-29T00:03:04.197Z,81.89
2018-01-29T00:05:30.786Z,81.91
2018-01-29T00:07:58.174Z,81.81
2018-01-29T00:10:24.758Z,81.75
2018-01-29T00:12:51.319Z,82.28
2018-01-29T00:15:17.940Z,82.37
2018-01-29T00:17:44.506Z,82.32
2018-01-29T00:20:11.102Z,82.36
2018-01-29T00:22:38.502Z,82.56
2018-01-29T00:25:05.076Z,82.30
2018-01-29T00:27:31.793Z,82.49
2018-01-29T00:29:58.427Z,82.29
2018-01-29T00:32:25.170Z,82.23
2018-01-29T00:34:51.784Z,82.27
2018-01-29T00:37:18.353Z,82.42
2018-01-29T00:39:45.030Z,82.35
2018-01-29T00:42:11.643Z,82.36
2018-01-29T00:44:38.213Z,82.27
2018-01-29T00:47:05.679Z,82.21
2018-01-29T00:49:33.078Z,82.69
2018-01-29T00:51:59.646Z,82.26
2018-01-29T00:54:26.237Z,82.13
2018-01-29T00:56:52.926Z,82.31
2018-01-29T00:59:19.690Z,82.33
2018-01-29T01:01:47.035Z,82.36
2018-01-29T01:04:13.667Z,82.22
2018-01-29T01:06:41.041Z,82.27
2018-01-29T01:09:08.855Z,82.85
2018-01-29T01:11:35.454Z,82.79
2018-01-29T01:14:02.021Z,82.69
2018-01-29T01:16:28.657Z,82.68
2018-01-29T01:18:55.441Z,82.35
2018-01-29T01:21:22.773Z,82.34
2018-01-29T01:23:50.127Z,82.07
2018-01-29T01:26:16.725Z,82.12
2018-01-29T01:28:43.321Z,82.27
2018-01-29T01:31:10.642Z,82.25
2018-01-29T01:33:37.265Z,82.39
2018-01-29T01:36:03.929Z,82.60
2018-01-29T01:38:30.494Z,82.78
2018-01-29T01:40:57.853Z,82.89
2018-01-29T01:43:24.447Z,82.97
2018-01-29T01:45:51.115Z,83.05
2018-01-29T01:48:17.703Z,82.71
2018-01-29T01:50:44.322Z,82.92
2018-01-29T01:53:11.022Z,82.92
2018-01-29T01:55:37.701Z,83.15
2018-01-29T01:58:04.398Z,83.15
2018-01-29T02:00:31.763Z,83.27
2018-01-29T02:02:58.371Z,82.97
2018-01-29T02:05:24.946Z,82.62
2018-01-29T02:07:52.282Z,82.57
2018-01-29T02:10:18.886Z,82.64
2018-01-29T02:12:45.580Z,82.72
2018-01-29T02:15:12.310Z,83.26
2018-01-29T02:17:38.937Z,83.04
2018-01-29T02:20:05.577Z,82.68
2018-01-29T02:22:32.945Z,82.94
2018-01-29T02:24:59.541Z,83.07
2018-01-29T02:27:26.154Z,83.29
2018-01-29T02:29:52.730Z,83.39
2018-01-29T02:32:19.410Z,83.55
2018-01-29T02:34:46.028Z,83.58
2018-01-29T02:37:13.420Z,83.60
2018-01-29T02:39:40.006Z,83.49
2018-01-29T02:42:07.356Z,83.29
2018-01-29T02:44:34.695Z,83.38
2018-01-29T02:47:01.310Z,83.21
2018-01-29T02:49:27.945Z,83.11
2018-01-29T02:51:54.551Z,82.91
2018-01-29T02:54:21.156Z,83.02
2018-01-29T02:56:47.864Z,83.19
2018-01-29T02:59:14.493Z,83.07
2018-01-29T03:01:41.074Z,82.59
2018-01-29T03:04:08.426Z,82.89
2018-01-29T03:06:35.761Z,83.34
2018-01-29T03:09:02.591Z,83.33
2018-01-29T03:11:29.184Z,83.28
2018-01-29T03:13:55.770Z,83.32
2018-01-29T03:16:22.370Z,83.10
2018-01-29T03:18:48.979Z,83.10
2018-01-29T03:21:15.749Z,83.26
2018-01-29T03:23:42.321Z,83.45
2018-01-29T03:26:08.901Z,83.32
2018-01-29T03:28:36.220Z,83.24
2018-01-29T03:31:02.781Z,83.15
2018-01-29T03:33:29.346Z,83.25
2018-01-29T03:35:56.002Z,83.15
2018-01-29T03:38:22.622Z,82.88
2018-01-29T03:40:49.267Z,82.74
2018-01-29T03:43:15.875Z,82.66
2018-01-29T03:45:42.480Z,82.63
2018-01-29T03:48:09.065Z,82.64
2018-01-29T03:50:35.754Z,82.93
2018-01-29T03:53:02.311Z,82.85
2018-01-29T03:55:29.642Z,82.92
2018-01-29T03:57:56.266Z,82.93
2018-01-29T04:00:22.986Z,82.24
2018-01-29T04:02:49.599Z,82.43
2018-01-29T04:05:16.213Z,82.53
2018-01-29T04:07:43.546Z,82.38
2018-01-29T04:10:10.935Z,82.35
2018-01-29T04:12:37.606Z,82.34
2018-01-29T04:15:04.225Z,82.11
2018-01-29T04:17:30.826Z,82.17
2018-01-29T04:19:57.389Z,82.14
2018-01-29T04:22:23.995Z,81.64
2018-01-29T04:24:50.578Z,82.05
2018-01-29T04:27:17.166Z,82.09
2018-01-29T04:29:43.738Z,82.14
2018-01-29T04:32:10.366Z,81.98
2018-01-29T04:34:36.991Z,82.09
2018-01-29T04:37:04.305Z,82.29
2018-01-29T04:39:30.980Z,82.52
2018-01-29T04:41:58.326Z,82.66
2018-01-29T04:44:25.714Z,83.34
2018-01-29T04:46:52.347Z,83.69
2018-01-29T04:49:18.910Z,83.73
2018-01-29T04:51:45.530Z,83.97
2018-01-29T04:54:12.094Z,84.21
2018-01-29T04:56:38.677Z,84.03
2018-01-29T04:59:06.090Z,83.96
2018-01-29T05:01:32.658Z,83.86
2018-01-29T05:03:59.305Z,83.83
2018-01-29T05:06:26.630Z,83.91
2018-01-29T05:08:53.194Z,83.99
2018-01-29T05:11:20.589Z,84.00
2018-01-29T05:13:47.255Z,84.04
2018-01-29T05:16:14.650Z,84.13
2018-01-29T05:18:41.489Z,84.29
2018-01-29T05:21:08.890Z,84.46
2018-01-29T05:23:35.448Z,84.37
2018-01-29T05:26:02.116Z,84.24
2018-01-29T05:28:29.423Z,84.25
2018-01-29T05:30:56.035Z,84.15
2018-01-29T05:33:22.731Z,83.82
2018-01-29T05:36:02.214Z,83.85
2018-01-29T05:38:35.782Z,84.14
2018-01-29T05:41:03.177Z,84.60
2018-01-29T05:43:29.787Z,84.59
2018-01-29T05:45:56.391Z,84.65
2018-01-29T05:48:23.325Z,84.52
2018-01-29T05:50:50.017Z,84.31
2018-01-29T05:53:17.454Z,84.49
2018-01-29T05:55:44.054Z,83.96
2018-01-29T05:58:10.735Z,84.13
2018-01-29T06:00:37.371Z,83.97
2018-01-29T06:03:03.947Z,84.73
2018-01-29T06:05:30.634Z,85.13
2018-01-29T06:07:57.196Z,85.20
2018-01-29T06:10:24.523Z,85.67
2018-01-29T06:12:51.146Z,85.65
2018-01-29T06:15:17.774Z,85.89
2018-01-29T06:17:44.442Z,85.87
2018-01-29T06:20:10.993Z,86.00
2018-01-29T06:22:37.628Z,86.07
2018-01-29T06:25:04.994Z,85.45
2018-01-29T06:27:31.594Z,85.44
2018-01-29T06:29:58.192Z,85.10
2018-01-29T06:32:25.690Z,84.50
2018-01-29T06:34:52.338Z,85.20
2018-01-29T06:37:18.890Z,85.47
2018-01-29T06:39:45.463Z,85.77
2018-01-29T06:42:12.070Z,85.40
2018-01-29T06:44:38.715Z,85.90
2018-01-29T06:47:05.438Z,86.13
2018-01-29T06:49:32.761Z,85.70
2018-01-29T06:51:59.301Z,85.42
2018-01-29T06:54:26.033Z,86.09
2018-01-29T06:56:52.609Z,86.33
2018-01-29T06:59:19.187Z,85.98
2018-01-29T07:01:45.816Z,86.35
2018-01-29T07:04:12.386Z,86.41
2018-01-29T07:06:38.926Z,86.75
2018-01-29T07:09:06.278Z,86.77
2018-01-29T07:11:32.985Z,86.93
2018-01-29T07:14:00.442Z,87.14
2018-01-29T07:16:27.027Z,87.34
2018-01-29T07:18:54.342Z,87.56
2018-01-29T07:21:20.954Z,87.60
2018-01-29T07:23:47.540Z,87.43
2018-01-29T07:26:14.114Z,87.34
2018-01-29T07:28:40.771Z,87.48
2018-01-29T07:31:08.066Z,87.74
2018-01-29T07:33:34.652Z,87.65
2018-01-29T07:36:01.214Z,87.65
2018-01-29T07:38:27.893Z,87.58
2018-01-29T07:40:54.487Z,87.85
2018-01-29T07:43:21.188Z,87.66
2018-01-29T07:45:47.805Z,87.62
2018-01-29T07:48:14.415Z,87.37
2018-01-29T07:50:41.017Z,86.58
2018-01-29T07:53:07.728Z,86.08
2018-01-29T07:55:34.294Z,85.87
2018-01-29T07:58:00.885Z,85.54
2018-01-29T08:00:28.277Z,85.37
2018-01-29T08:02:54.869Z,85.17
2018-01-29T08:05:21.517Z,84.94
2018-01-29T08:07:48.078Z,84.33
2018-01-29T08:10:14.683Z,83.68
2018-01-29T08:12:41.263Z,82.59
2018-01-29T08:15:08.118Z,81.26
2018-01-29T08:17:34.715Z,79.15
2018-01-29T08:20:02.118Z,77.16
2018-01-29T08:22:29.261Z,76.33
2018-01-29T08:24:55.871Z,74.61
2018-01-29T08:27:23.555Z,73.04
2018-01-29T08:29:50.125Z,74.29
2018-01-29T08:32:16.701Z,76.20
2018-01-29T08:34:43.314Z,76.97
2018-01-29T08:37:10.846Z,77.82
2018-01-29T08:39:37.414Z,79.44
2018-01-29T08:42:04.778Z,81.08
2018-01-29T08:44:31.418Z,82.13
2018-01-29T08:46:58.061Z,82.70
2018-01-29T08:49:24.686Z,83.44
2018-01-29T08:51:52.011Z,83.84
2018-01-29T08:54:18.614Z,84.15
2018-01-29T08:56:45.238Z,84.63
2018-01-29T08:59:11.838Z,84.76
2018-01-29T09:01:39.291Z,85.20
2018-01-29T09:04:05.962Z,84.95
2018-01-29T09:06:32.585Z,84.78
2018-01-29T09:08:59.241Z,84.82
2018-01-29T09:11:25.842Z,84.34
2018-01-29T09:13:52.438Z,85.10
2018-01-29T09:16:19.071Z,84.88
2018-01-29T09:18:45.655Z,84.61
2018-01-29T09:21:12.243Z,84.78
2018-01-29T09:23:38.855Z,84.17
2018-01-29T09:26:06.391Z,84.16
2018-01-29T09:28:33.678Z,84.05
2018-01-29T09:31:00.255Z,84.03
2018-01-29T09:33:26.919Z,84.13
2018-01-29T09:35:54.278Z,84.09
2018-01-29T09:38:20.871Z,84.17
2018-01-29T09:40:47.435Z,84.21
2018-01-29T09:43:14.846Z,84.25
2018-01-29T09:45:41.438Z,84.22
2018-01-29T09:48:08.798Z,84.43
2018-01-29T09:50:36.149Z,84.29
2018-01-29T09:53:03.566Z,84.35
2018-01-29T09:55:30.151Z,84.16
2018-01-29T09:57:56.769Z,84.15
2018-01-29T10:00:23.758Z,84.15
2018-01-29T10:02:50.421Z,84.23
2018-01-29T10:05:17.148Z,83.82
2018-01-29T10:07:43.732Z,83.76
2018-01-29T10:10:10.430Z,84.00
2018-01-29T10:12:37.021Z,83.91
2018-01-29T10:15:04.385Z,83.92
2018-01-29T10:17:31.082Z,84.40
2018-01-29T10:19:58.439Z,84.71
2018-01-29T10:22:25.127Z,84.99
2018-01-29T10:24:51.721Z,84.78
2018-01-29T10:27:18.380Z,84.80
2018-01-29T10:29:45.015Z,84.69
2018-01-29T10:32:11.795Z,84.77
2018-01-29T10:34:38.398Z,85.09
2018-01-29T10:37:05.746Z,84.92
2018-01-29T10:39:33.105Z,84.44
2018-01-29T10:41:59.715Z,83.91
2018-01-29T10:44:26.349Z,83.59
2018-01-29T10:46:52.933Z,83.97
2018-01-29T10:49:19.558Z,83.72
2018-01-29T10:51:46.159Z,83.53
2018-01-29T10:54:12.741Z,83.51
2018-01-29T10:56:39.366Z,83.17
2018-01-29T10:59:06.762Z,83.24
2018-01-29T11:01:33.430Z,82.60
2018-01-29T11:03:59.978Z,83.15
2018-01-29T11:06:27.896Z,82.25
2018-01-29T11:08:54.463Z,82.17
2018-01-29T11:11:21.486Z,81.80
2018-01-29T11:13:48.074Z,79.89
2018-01-29T11:16:14.695Z,78.47
2018-01-29T11:18:42.243Z,77.33
2018-01-29T11:21:08.820Z,76.84
2018-01-29T11:23:35.459Z,73.89
2018-01-29T11:26:02.042Z,70.33
2018-01-29T11:28:29.026Z,69.83
2018-01-29T11:30:55.610Z,64.41
2018-01-29T11:33:22.181Z,59.83
2018-01-29T11:35:48.737Z,56.97
2018-01-29T11:38:16.099Z,55.75
2018-01-29T11:40:42.674Z,54.47
2018-01-29T11:43:09.290Z,53.46
2018-01-29T11:45:35.854Z,54.48
2018-01-29T11:48:02.482Z,57.68
2018-01-29T11:50:29.070Z,58.92
2018-01-29T11:52:56.394Z,61.91
2018-01-29T11:55:23.014Z,62.92
2018-01-29T11:57:49.606Z,64.72
2018-01-29T12:00:17.350Z,66.49
2018-01-29T12:02:43.916Z,66.50
2018-01-29T12:05:10.483Z,67.06
2018-01-29T12:07:37.419Z,68.24
2018-01-29T12:10:04.130Z,69.23
2018-01-29T12:12:30.763Z,69.61
2018-01-29T12:14:57.386Z,69.37
2018-01-29T12:17:24.695Z,69.32
2018-01-29T12:19:52.121Z,69.37
2018-01-29T12:22:18.734Z,69.45
2018-01-29T12:24:46.026Z,69.81
2018-01-29T12:27:12.611Z,70.49
2018-01-29T12:29:39.207Z,70.55
2018-01-29T12:32:05.844Z,70.92
2018-01-29T12:34:32.464Z,70.61
2018-01-29T12:36:59.051Z,70.69
2018-01-29T12:39:26.398Z,70.19
2018-01-29T12:41:53.009Z,69.74
2018-01-29T12:44:19.601Z,70.67
2018-01-29T12:46:46.205Z,70.64
2018-01-29T12:49:12.806Z,70.17
2018-01-29T12:51:39.360Z,70.14
2018-01-29T12:54:05.957Z,69.56
2018-01-29T12:56:32.590Z,70.25
2018-01-29T12:58:59.962Z,70.20
2018-01-29T13:01:26.587Z,70.21
2018-01-29T13:03:53.186Z,70.47
2018-01-29T13:06:19.789Z,70.06
2018-01-29T13:08:46.418Z,70.07
2018-01-29T13:11:13.000Z,70.53
2018-01-29T13:13:39.603Z,70.23
2018-01-29T13:16:06.954Z,69.83
2018-01-29T13:18:33.610Z,69.97
2018-01-29T13:21:00.201Z,69.85
2018-01-29T13:23:26.758Z,69.70
2018-01-29T13:25:53.359Z,69.97
2018-01-29T13:28:20.679Z,70.09
2018-01-29T13:30:47.315Z,70.06
2018-01-29T13:33:14.006Z,70.22
2018-01-29T13:35:40.611Z,69.79
2018-01-29T13:38:07.228Z,70.63
2018-01-29T13:40:33.842Z,71.41
2018-01-29T13:43:00.502Z,71.80
2018-01-29T13:45:27.877Z,71.98
2018-01-29T13:47:54.486Z,71.64
2018-01-29T13:50:21.149Z,71.53
2018-01-29T13:52:47.730Z,71.85
2018-01-29T14:08:05.270Z,71.93
2018-01-29T14:10:31.928Z,71.99
2018-01-29T14:12:59.303Z,71.94
2018-01-29T14:15:26.629Z,72.46
2018-01-29T14:17:53.257Z,72.44
2018-01-29T14:20:19.872Z,72.46
2018-01-29T14:22:46.443Z,72.56
2018-01-29T14:25:13.073Z,73.23
2018-01-29T14:27:39.701Z,73.80
2018-01-29T14:30:06.280Z,73.78
2018-01-29T14:32:33.610Z,73.84
2018-01-29T14:35:00.189Z,73.95
2018-01-29T14:37:26.781Z,74.00
2018-01-29T14:39:53.375Z,73.56
2018-01-29T14:42:19.952Z,73.66
2018-01-29T14:44:46.605Z,73.96
2018-01-29T14:47:13.198Z,73.62
2018-01-29T14:49:39.814Z,73.62
2018-01-29T14:52:06.386Z,74.40
2018-01-29T14:54:32.982Z,74.91
2018-01-29T14:56:59.606Z,74.98
2018-01-29T14:59:26.958Z,74.60
2018-01-29T15:01:54.295Z,75.25
2018-01-29T15:04:21.679Z,75.58
2018-01-29T15:06:48.257Z,75.78
2018-01-29T15:09:14.879Z,75.16
2018-01-29T15:11:41.495Z,75.55
2018-01-29T15:14:08.066Z,75.65
2018-01-29T15:16:34.669Z,75.21
2018-01-29T15:19:01.266Z,75.05
2018-01-29T15:21:27.862Z,75.48
2018-01-29T15:23:54.514Z,75.46
2018-01-29T15:26:21.121Z,75.29
2018-01-29T15:28:47.684Z,75.52
2018-01-29T15:31:14.343Z,75.56
2018-01-29T15:33:40.947Z,76.07
2018-01-29T15:36:07.607Z,76.33
2018-01-29T15:38:34.185Z,75.92
2018-01-29T15:41:01.557Z,75.94
2018-01-29T15:43:28.142Z,76.24
2018-01-29T15:45:54.753Z,76.03
2018-01-29T15:48:21.356Z,75.90
2018-01-29T15:50:48.722Z,76.20
2018-01-29T15:53:15.495Z,76.50
2018-01-29T15:55:42.074Z,76.36
2018-01-29T15:58:09.418Z,76.53
2018-01-29T16:00:36.029Z,76.58
2018-01-29T16:03:02.593Z,76.99
2018-01-29T16:05:29.188Z,76.65
2018-01-29T16:07:55.810Z,77.22
2018-01-29T16:10:22.378Z,77.84
2018-01-29T16:12:48.978Z,78.04
2018-01-29T16:15:15.568Z,78.06
2018-01-29T16:17:42.154Z,77.67
2018-01-29T16:20:08.749Z,77.93
2018-01-29T16:22:35.353Z,77.73
2018-01-29T16:25:01.966Z,78.18
2018-01-29T16:27:28.597Z,77.86
2018-01-29T16:29:55.245Z,78.03
2018-01-29T16:32:21.840Z,77.72
2018-01-29T16:34:49.231Z,77.53
2018-01-29T16:37:15.833Z,77.54
2018-01-29T16:39:43.587Z,77.58
2018-01-29T16:42:13.107Z,77.59
2018-01-29T16:44:40.453Z,77.91
2018-01-29T16:47:07.166Z,77.77
2018-01-29T16:49:33.799Z,77.38
2018-01-29T16:52:01.185Z,77.51
2018-01-29T16:54:27.849Z,77.68
2018-01-29T16:56:54.457Z,77.76
2018-01-29T16:59:21.106Z,77.88
2018-01-29T17:01:48.454Z,77.38
2018-01-29T17:04:15.763Z,77.07
2018-01-29T17:06:42.387Z,77.29
2018-01-29T17:09:08.998Z,77.02
2018-01-29T17:11:35.569Z,76.95
2018-01-29T17:14:02.194Z,76.87
2018-01-29T17:16:28.828Z,77.30
2018-01-29T17:18:55.357Z,76.86
2018-01-29T17:21:21.971Z,77.00
2018-01-29T17:23:49.319Z,76.66
2018-01-29T17:26:16.698Z,76.62
2018-01-29T17:28:43.421Z,76.50
2018-01-29T17:31:10.179Z,76.65
2018-01-29T17:33:36.816Z,76.78
2018-01-29T17:36:03.513Z,76.66
2018-01-29T17:38:30.102Z,76.58
2018-01-29T17:40:56.735Z,76.69
2018-01-29T17:43:23.355Z,76.67
2018-01-29T17:45:49.962Z,76.64
2018-01-29T17:48:17.291Z,76.59
2018-01-29T17:50:43.925Z,76.66
2018-01-29T17:53:10.503Z,76.61
2018-01-29T17:55:37.965Z,76.61
2018-01-29T17:58:04.529Z,76.54
2018-01-29T18:00:31.235Z,76.53
2018-01-29T18:02:57.861Z,76.37
2018-01-29T18:05:25.347Z,76.31
2018-01-29T18:07:52.032Z,75.87
2018-01-29T18:10:18.641Z,76.01
2018-01-29T18:12:45.315Z,76.05
2018-01-29T18:15:11.976Z,76.39
2018-01-29T18:17:39.314Z,76.04
2018-01-29T18:20:05.993Z,76.16
2018-01-29T18:22:32.640Z,76.40
2018-01-29T18:24:59.389Z,76.27
2018-01-29T18:27:25.964Z,76.09
2018-01-29T18:29:52.551Z,76.36
2018-01-29T18:32:19.306Z,76.10
2018-01-29T18:34:45.858Z,75.99
2018-01-29T18:37:12.605Z,75.93
2018-01-29T18:39:39.254Z,76.06
2018-01-29T18:42:05.862Z,75.85
2018-01-29T18:44:32.454Z,75.55
2018-01-29T18:46:59.870Z,75.27
2018-01-29T18:49:26.495Z,74.94
2018-01-29T18:51:53.149Z,74.81
2018-01-29T18:54:19.743Z,74.73
2018-01-29T18:56:46.412Z,75.08
2018-01-29T18:59:13.115Z,75.18
2018-01-29T19:01:39.720Z,75.11
2018-01-29T19:04:06.340Z,74.92
2018-01-29T19:06:33.104Z,74.89
2018-01-29T19:08:59.740Z,74.76
2018-01-29T19:11:27.097Z,74.82
2018-01-29T19:13:53.714Z,75.01
2018-01-29T19:16:20.346Z,74.67
2018-01-29T19:18:46.942Z,74.92
2018-01-29T19:21:14.406Z,75.10
2018-01-29T19:23:41.017Z,75.24
2018-01-29T19:26:07.693Z,75.00
2018-01-29T19:28:34.395Z,75.02
2018-01-29T19:31:00.998Z,75.51
2018-01-29T19:33:27.615Z,75.85
2018-01-29T19:35:54.266Z,75.35
2018-01-29T19:38:20.916Z,75.47
2018-01-29T19:40:47.553Z,75.29
2018-01-29T19:43:14.226Z,75.29
2018-01-29T19:45:40.839Z,75.63
2018-01-29T19:48:07.414Z,75.61
2018-01-29T19:50:34.079Z,75.49
2018-01-29T19:53:00.721Z,75.36
2018-01-29T19:55:27.335Z,75.46
2018-01-29T19:57:54.012Z,75.46
2018-01-29T20:00:20.683Z,75.64
2018-01-29T20:02:47.361Z,75.75
2018-01-29T20:05:14.158Z,75.66
2018-01-29T20:07:41.550Z,75.82
2018-01-29T20:10:08.223Z,75.89
2018-01-29T20:12:35.582Z,76.04
2018-01-29T20:15:02.259Z,75.94
2018-01-29T20:17:28.930Z,75.97
2018-01-29T20:19:55.535Z,76.16
2018-01-29T20:22:22.150Z,75.91
2018-01-29T20:24:48.770Z,75.64
2018-01-29T20:27:15.366Z,75.71
2018-01-29T20:29:42.000Z,75.38
2018-01-29T20:32:08.645Z,75.41
2018-01-29T20:34:35.278Z,75.54
2018-01-29T20:37:01.942Z,75.44
2018-01-29T20:39:29.306Z,75.46
2018-01-29T20:41:56.074Z,75.37
2018-01-29T20:44:22.706Z,75.07
2018-01-29T20:46:50.110Z,75.16
2018-01-29T20:49:16.705Z,75.28
2018-01-29T20:51:43.437Z,75.17
2018-01-29T20:54:10.793Z,75.02
2018-01-29T20:56:37.419Z,75.02
2018-01-29T20:59:04.207Z,74.86
2018-01-29T21:01:30.866Z,75.01
2018-01-29T21:03:57.588Z,74.60
2018-01-29T21:06:24.210Z,74.95
2018-01-29T21:08:51.135Z,75.05
2018-01-29T21:11:17.760Z,75.20
2018-01-29T21:13:45.070Z,75.53
2018-01-29T21:16:11.774Z,75.46
2018-01-29T21:18:39.106Z,75.15
2018-01-29T21:21:05.763Z,75.31
2018-01-29T21:23:32.652Z,75.20
2018-01-29T21:25:59.287Z,74.45
2018-01-29T21:28:25.910Z,74.66
2018-01-29T21:30:52.587Z,74.06
2018-01-29T21:33:20.004Z,74.17
2018-01-29T21:35:46.598Z,74.44
2018-01-29T21:38:14.002Z,74.05
2018-01-29T21:40:40.639Z,74.04
2018-01-29T21:43:07.251Z,73.90
2018-01-29T21:45:33.874Z,73.87
2018-01-29T21:48:01.191Z,74.02
2018-01-29T21:50:27.875Z,74.11
2018-01-29T21:52:54.599Z,73.95
2018-01-29T21:55:22.010Z,73.73
2018-01-29T21:57:48.655Z,73.58
2018-01-29T22:00:15.283Z,74.03
2018-01-29T22:02:41.921Z,74.27
2018-01-29T22:05:08.556Z,74.47
2018-01-29T22:07:35.178Z,74.55
2018-01-29T22:10:02.584Z,74.73
2018-01-29T22:12:29.173Z,74.86
2018-01-29T22:14:55.777Z,74.69
2018-01-29T22:17:23.120Z,75.05
2018-01-29T22:19:49.867Z,74.99
2018-01-29T22:22:17.194Z,74.97
2018-01-29T22:24:43.781Z,74.27
2018-01-29T22:27:10.409Z,74.73
2018-01-29T22:29:37.016Z,74.47
2018-01-29T22:32:03.621Z,74.69
2018-01-29T22:34:30.282Z,74.64
2018-01-29T22:36:57.020Z,74.02
2018-01-29T22:39:23.657Z,74.24
2018-01-29T22:41:50.246Z,74.46
2018-01-29T22:44:17.110Z,74.52
2018-01-29T22:46:43.661Z,74.59
2018-01-29T22:49:10.986Z,74.36
2018-01-29T22:51:37.622Z,73.63
2018-01-29T22:54:04.188Z,73.58
2018-01-29T22:56:30.792Z,73.77
2018-01-29T22:58:57.394Z,73.43
2018-01-29T23:01:23.982Z,73.23
2018-01-29T23:03:50.597Z,73.62
2018-01-29T23:06:17.250Z,73.55
2018-01-29T23:08:43.819Z,73.33
2018-01-29T23:11:10.498Z,73.29
2018-01-29T23:13:37.798Z,73.11
2018-01-29T23:16:04.374Z,73.25
2018-01-29T23:18:30.969Z,73.87
2018-01-29T23:20:58.270Z,73.94
2018-01-29T23:23:24.853Z,74.26
2018-01-29T23:25:51.436Z,74.17
2018-01-29T23:28:18.777Z,74.46
2018-01-29T23:30:45.362Z,74.07
2018-01-29T23:33:11.982Z,74.38
2018-01-29T23:35:38.593Z,74.92
2018-01-29T23:38:05.948Z,74.89
2018-01-29T23:40:33.298Z,74.88
2018-01-29T23:42:59.883Z,74.82
2018-01-29T23:45:26.446Z,74.59
2018-01-29T23:47:53.094Z,74.94
2018-01-29T23:50:19.682Z,74.91
2018-01-29T23:52:46.270Z,74.89
2018-01-29T23:55:12.885Z,74.96
2018-01-29T23:57:39.477Z,74.83
